Inicio METAR Ruta Wind Satelite

Informe Meteorológico

Fecha: 2021/09/21 15:58:33 Local
2021.09.21 20:58 UTC


Operación:VFR
SKSP 212000Z 07008KT 030V110 9999 SCT018 SCT200 30/25 Q1010 RMK A2983 =

SKSP 211900Z 08011KT 040V120 9999 FEW018 SCT200 31/24 Q1011 RMK A2986
SKSP 211800Z 07009KT 040V120 9999 FEW018 SCT200 32/25 Q1012 RMK A2990
SKSP 211700Z 07011KT 9999 FEW018 SCT200 31/25 Q1013 RMK A2992
SKSP 211600Z 08010KT 9999 FEW018 SCT200 31/24 Q1013 RMK A2993
SKSP 211500Z 07010KT 050V110 9999 FEW018 SCT200 30/25 Q1013 RMK A2991

2021/09/21 18:55
TAF SKSP 211630Z 2118/2218 08014KT 9999 SCT020 TX31/2118Z TN26/2210Z